createdAt,value
2023-02-16T00:01:17.526Z,21.30
2023-02-16T00:03:44.390Z,22.00
2023-02-16T00:06:15.795Z,20.30
2023-02-16T00:08:50.795Z,21.03
2023-02-16T00:11:52.292Z,20.97
2023-02-16T00:14:22.592Z,21.87
2023-02-16T00:16:50.153Z,21.63
2023-02-16T00:19:36.832Z,21.23
2023-02-16T00:22:04.852Z,20.43
2023-02-16T00:24:31.832Z,21.80
2023-02-16T00:27:00.376Z,21.70
2023-02-16T00:29:30.656Z,20.97
2023-02-16T00:31:58.785Z,20.90
2023-02-16T00:34:32.867Z,22.50
2023-02-16T00:37:05.118Z,20.87
2023-02-16T00:39:31.827Z,19.83
2023-02-16T00:42:01.797Z,19.80
2023-02-16T00:44:33.751Z,20.77
2023-02-16T00:47:22.359Z,21.57
2023-02-16T00:49:51.608Z,20.07
2023-02-16T00:52:25.209Z,20.17
2023-02-16T00:54:52.020Z,19.87
2023-02-16T00:57:19.857Z,19.43
2023-02-16T00:59:48.690Z,20.07
2023-02-16T01:02:15.613Z,19.87
2023-02-16T01:04:42.246Z,19.93
2023-02-16T01:07:31.890Z,20.17
2023-02-16T01:10:17.052Z,18.93
2023-02-16T01:12:43.628Z,18.73
2023-02-16T01:15:13.895Z,20.20
2023-02-16T01:17:40.605Z,19.40
2023-02-16T01:20:16.192Z,20.60
2023-02-16T01:22:42.792Z,18.93
2023-02-16T01:25:09.547Z,19.50
2023-02-16T01:27:39.646Z,20.00
2023-02-16T01:30:08.479Z,20.93
2023-02-16T01:32:35.061Z,20.90
2023-02-16T01:35:01.612Z,19.80
2023-02-16T01:37:28.424Z,20.87
2023-02-16T01:39:54.971Z,22.60
2023-02-16T01:42:41.241Z,21.67
2023-02-16T01:45:19.312Z,19.87
2023-02-16T01:47:53.170Z,19.87
2023-02-16T01:50:23.176Z,21.07
2023-02-16T01:53:15.972Z,21.53
2023-02-16T01:55:46.965Z,21.10
2023-02-16T01:58:41.874Z,19.13
2023-02-16T02:01:39.527Z,19.83
2023-02-16T02:04:59.138Z,19.07
2023-02-16T02:07:31.132Z,18.67
2023-02-16T02:10:28.013Z,19.33
2023-02-16T02:13:07.220Z,19.53
2023-02-16T02:15:34.717Z,18.70
2023-02-16T02:18:01.850Z,19.00
2023-02-16T02:21:14.893Z,18.70
2023-02-16T02:24:14.116Z,20.88
2023-02-16T02:27:18.533Z,18.17
2023-02-16T02:30:08.005Z,17.40
2023-02-16T02:32:55.910Z,17.50
2023-02-16T02:36:07.789Z,17.30
2023-02-16T02:38:56.962Z,17.83
2023-02-16T02:41:55.469Z,18.67
2023-02-16T02:44:26.903Z,18.27
2023-02-16T02:46:53.639Z,18.73
2023-02-16T02:49:20.375Z,18.53
2023-02-16T02:51:47.956Z,19.27
2023-02-16T02:54:37.722Z,19.27
2023-02-16T02:57:29.148Z,20.07
2023-02-16T03:00:24.501Z,18.70
2023-02-16T03:02:54.962Z,20.23
2023-02-16T03:05:22.975Z,19.37
2023-02-16T03:07:52.278Z,19.03
2023-02-16T03:10:45.154Z,19.60
2023-02-16T03:13:17.434Z,19.27
2023-02-16T03:15:47.849Z,19.00
2023-02-16T03:18:35.136Z,18.23
2023-02-16T03:21:22.121Z,18.93
2023-02-16T03:24:09.843Z,20.03
2023-02-16T03:26:56.416Z,18.97
2023-02-16T03:29:26.032Z,20.03
2023-02-16T03:31:55.222Z,17.90
2023-02-16T03:34:22.524Z,18.30
2023-02-16T03:36:58.390Z,19.47
2023-02-16T03:39:27.432Z,17.23
2023-02-16T03:41:55.845Z,18.00
2023-02-16T03:44:22.897Z,19.13
2023-02-16T03:46:49.566Z,18.70
2023-02-16T03:49:17.212Z,18.90
2023-02-16T03:51:43.947Z,19.77
2023-02-16T03:54:10.720Z,19.67
2023-02-16T03:56:37.409Z,18.70
2023-02-16T03:59:04.005Z,19.07
2023-02-16T04:01:30.599Z,17.87
2023-02-16T04:03:57.223Z,17.50
2023-02-16T04:06:23.870Z,18.70
2023-02-16T04:08:50.848Z,17.83
2023-02-16T04:11:35.958Z,17.67
2023-02-16T04:14:03.271Z,18.73
2023-02-16T04:16:29.962Z,18.23
2023-02-16T04:18:56.702Z,18.23
2023-02-16T04:21:23.249Z,18.47
2023-02-16T04:23:49.790Z,18.13
2023-02-16T04:26:16.319Z,18.00
2023-02-16T04:28:42.892Z,19.13
2023-02-16T04:31:09.867Z,19.57
2023-02-16T04:33:36.485Z,20.30
2023-02-16T04:36:03.060Z,18.77
2023-02-16T04:38:30.210Z,18.97
2023-02-16T04:40:56.851Z,19.93
2023-02-16T04:43:23.525Z,20.33
2023-02-16T04:45:50.211Z,20.20
2023-02-16T04:48:16.843Z,19.70
2023-02-16T04:50:43.413Z,18.93
2023-02-16T04:53:10.002Z,18.77
2023-02-16T04:55:36.780Z,19.63
2023-02-16T04:58:03.390Z,19.77
2023-02-16T05:00:29.973Z,18.63
2023-02-16T05:02:57.094Z,19.63
2023-02-16T05:05:23.679Z,21.07
2023-02-16T05:07:50.224Z,19.70
2023-02-16T05:10:16.815Z,20.57
2023-02-16T05:13:03.684Z,19.33
2023-02-16T05:15:30.512Z,20.13
2023-02-16T05:17:57.303Z,18.70
2023-02-16T05:20:43.954Z,19.97
2023-02-16T05:23:10.582Z,19.63
2023-02-16T05:25:37.112Z,22.83
2023-02-16T05:28:03.772Z,20.83
2023-02-16T05:30:30.444Z,19.87
2023-02-16T05:32:57.019Z,21.27
2023-02-16T05:35:23.569Z,20.97
2023-02-16T05:37:50.115Z,18.80
2023-02-16T05:40:16.745Z,19.40
2023-02-16T05:42:43.312Z,20.90
2023-02-16T05:45:10.576Z,19.00
2023-02-16T05:47:37.136Z,18.87
2023-02-16T05:50:03.928Z,20.23
2023-02-16T05:52:30.527Z,21.40
2023-02-16T05:54:57.101Z,19.53
2023-02-16T05:57:23.676Z,20.10
2023-02-16T05:59:50.223Z,18.87
2023-02-16T06:02:16.806Z,19.43
2023-02-16T06:04:43.441Z,24.70
2023-02-16T06:07:10.005Z,21.07
2023-02-16T06:09:36.547Z,20.60
2023-02-16T06:12:03.441Z,20.60
2023-02-16T06:14:30.112Z,20.60
2023-02-16T06:16:58.703Z,20.03
2023-02-16T06:19:26.843Z,20.10
2023-02-16T06:21:53.431Z,20.73
2023-02-16T06:24:20.005Z,20.30
2023-02-16T06:26:46.596Z,21.70
2023-02-16T06:29:13.152Z,20.70
2023-02-16T06:31:39.838Z,19.80
2023-02-16T06:34:06.843Z,21.63
2023-02-16T06:36:34.480Z,20.33
2023-02-16T06:39:01.395Z,24.92
2023-02-16T06:41:40.795Z,20.57
2023-02-16T06:44:12.484Z,22.27
2023-02-16T06:46:43.219Z,22.77
2023-02-16T06:49:15.325Z,21.37
2023-02-16T06:51:42.019Z,21.53
2023-02-16T06:54:08.903Z,22.40
2023-02-16T06:56:37.668Z,21.50
2023-02-16T06:59:04.541Z,22.43
2023-02-16T07:01:31.378Z,22.37
2023-02-16T07:03:58.484Z,23.10
2023-02-16T07:06:27.701Z,21.40
2023-02-16T07:08:54.676Z,21.37
2023-02-16T07:11:21.985Z,22.20
2023-02-16T07:13:49.108Z,21.47
2023-02-16T07:16:16.135Z,22.33
2023-02-16T07:18:42.902Z,20.97
2023-02-16T07:21:09.493Z,22.03
2023-02-16T07:23:36.090Z,21.93
2023-02-16T07:26:02.790Z,21.37
2023-02-16T07:28:31.605Z,22.40
2023-02-16T07:30:58.328Z,21.37
2023-02-16T07:33:25.024Z,22.43
2023-02-16T07:35:51.821Z,22.13
2023-02-16T07:38:18.381Z,21.47
2023-02-16T07:40:45.007Z,21.83
2023-02-16T07:43:11.690Z,21.13
2023-02-16T07:45:38.466Z,22.30
2023-02-16T07:48:05.302Z,21.93
2023-02-16T07:50:31.871Z,20.30
2023-02-16T07:53:01.600Z,21.85
2023-02-16T07:55:28.298Z,19.53
2023-02-16T07:57:58.100Z,19.73
2023-02-16T08:00:26.709Z,18.03
2023-02-16T08:02:53.860Z,19.53
2023-02-16T08:05:20.586Z,17.57
2023-02-16T08:07:47.877Z,17.77
2023-02-16T08:10:15.700Z,17.90
2023-02-16T08:12:42.505Z,17.10
2023-02-16T08:15:09.882Z,17.33
2023-02-16T08:17:36.584Z,16.00
2023-02-16T08:20:05.340Z,15.73
2023-02-16T08:22:32.743Z,15.47
2023-02-16T08:24:59.842Z,15.00
2023-02-16T08:27:26.915Z,14.93
2023-02-16T08:29:54.177Z,15.23
2023-02-16T08:32:20.981Z,16.85
2023-02-16T08:34:47.644Z,17.40
2023-02-16T08:37:14.257Z,16.07
2023-02-16T08:39:41.455Z,14.63
2023-02-16T08:42:10.813Z,13.67
2023-02-16T08:44:37.458Z,14.93
2023-02-16T08:47:04.399Z,15.23
2023-02-16T08:49:31.071Z,15.70
2023-02-16T08:51:58.989Z,16.67
2023-02-16T08:54:29.891Z,18.40
2023-02-16T08:56:58.744Z,17.40
2023-02-16T08:59:28.353Z,17.97
2023-02-16T09:01:55.938Z,16.17
2023-02-16T09:04:24.429Z,16.70
2023-02-16T09:06:52.347Z,17.58
2023-02-16T09:09:19.413Z,16.13
2023-02-16T09:11:46.729Z,14.70
2023-02-16T09:14:13.675Z,15.80
2023-02-16T09:16:45.404Z,15.07
2023-02-16T09:19:14.974Z,14.93
2023-02-16T09:21:42.593Z,16.03
2023-02-16T09:24:11.445Z,15.87
2023-02-16T09:26:38.880Z,15.07
2023-02-16T09:29:07.024Z,14.20
2023-02-16T09:31:35.955Z,13.77
2023-02-16T09:34:19.541Z,14.43
2023-02-16T09:36:47.332Z,13.30
2023-02-16T09:39:14.750Z,12.77
2023-02-16T09:41:41.750Z,12.53
2023-02-16T09:44:09.757Z,12.13
2023-02-16T09:46:36.914Z,12.87
2023-02-16T09:49:04.286Z,12.57
2023-02-16T09:51:35.014Z,12.30
2023-02-16T09:54:14.239Z,13.23
2023-02-16T09:56:45.463Z,12.00
2023-02-16T09:59:22.872Z,13.47
2023-02-16T10:02:20.723Z,12.63
2023-02-16T10:05:13.896Z,12.67
2023-02-16T10:07:43.731Z,12.40
2023-02-16T10:10:14.746Z,10.87
2023-02-16T10:12:43.450Z,11.43
2023-02-16T10:15:16.333Z,10.53
2023-02-16T10:17:49.381Z,9.27
2023-02-16T10:20:19.047Z,9.27
2023-02-16T10:22:49.861Z,8.23
2023-02-16T10:25:19.550Z,8.40
2023-02-16T10:27:49.042Z,7.60
2023-02-16T10:30:22.990Z,8.00
2023-02-16T10:32:58.873Z,7.00
2023-02-16T10:35:30.084Z,8.30
2023-02-16T10:38:04.465Z,7.17
2023-02-16T10:40:44.179Z,7.10
2023-02-16T10:43:14.250Z,8.53
2023-02-16T10:45:49.517Z,6.93
2023-02-16T10:48:20.790Z,7.20
2023-02-16T10:50:57.017Z,6.87
2023-02-16T10:53:33.349Z,6.87
2023-02-16T10:56:00.749Z,6.63
2023-02-16T10:58:34.384Z,7.40
2023-02-16T11:01:19.648Z,7.37
2023-02-16T11:03:50.792Z,7.23
2023-02-16T11:06:19.499Z,6.73
2023-02-16T11:08:49.807Z,6.30
2023-02-16T11:11:17.647Z,7.13
2023-02-16T11:13:48.389Z,7.10
2023-02-16T11:16:23.326Z,7.27
2023-02-16T11:19:07.028Z,6.53
2023-02-16T11:21:44.655Z,6.20
2023-02-16T11:24:13.165Z,8.73
2023-02-16T11:26:40.245Z,10.57
2023-02-16T11:29:18.315Z,7.10
2023-02-16T11:31:45.837Z,6.53
2023-02-16T11:34:12.926Z,9.50
2023-02-16T11:36:41.906Z,6.87
2023-02-16T11:39:16.180Z,6.43
2023-02-16T11:41:49.819Z,6.03
2023-02-16T11:44:26.915Z,6.07
2023-02-16T11:46:55.783Z,6.10
2023-02-16T11:49:33.524Z,6.70
2023-02-16T11:52:00.858Z,6.10
2023-02-16T11:54:27.878Z,6.10
2023-02-16T11:57:06.499Z,6.40
2023-02-16T11:59:36.100Z,6.07
2023-02-16T12:02:06.148Z,5.70
2023-02-16T12:04:52.603Z,6.03
2023-02-16T12:07:38.635Z,6.97
2023-02-16T12:10:11.194Z,6.60
2023-02-16T12:12:41.351Z,6.60
2023-02-16T12:15:21.511Z,7.37
2023-02-16T12:17:48.779Z,6.87
2023-02-16T12:20:25.650Z,7.07
2023-02-16T12:23:00.865Z,6.90
2023-02-16T12:25:35.476Z,7.17
2023-02-16T12:28:13.460Z,7.40
2023-02-16T12:30:55.237Z,6.93
2023-02-16T12:33:35.812Z,7.17
2023-02-16T12:36:12.844Z,6.40
2023-02-16T12:39:00.256Z,7.80
2023-02-16T12:41:33.714Z,6.80
2023-02-16T12:44:06.967Z,7.10
2023-02-16T12:46:42.801Z,6.43
